createdAt,value
2022-11-29T00:01:26.098Z,3.20
2022-11-29T00:03:54.213Z,2.60
2022-11-29T00:06:27.594Z,4.07
2022-11-29T00:08:56.604Z,2.83
2022-11-29T00:11:46.119Z,3.30
2022-11-29T00:14:15.875Z,2.85
2022-11-29T00:16:43.189Z,2.43
2022-11-29T00:19:12.250Z,2.58
2022-11-29T00:21:39.732Z,2.90
2022-11-29T00:24:07.636Z,2.95
2022-11-29T00:26:35.099Z,2.92
2022-11-29T00:29:02.266Z,2.85
2022-11-29T00:31:32.011Z,2.22
2022-11-29T00:34:01.611Z,2.63
2022-11-29T00:36:29.607Z,3.10
2022-11-29T00:38:56.961Z,2.70
2022-11-29T00:41:24.480Z,2.60
2022-11-29T00:43:51.897Z,2.33
2022-11-29T00:46:19.148Z,2.50
2022-11-29T00:48:46.369Z,2.45
2022-11-29T00:51:13.849Z,2.33
2022-11-29T00:53:41.318Z,2.42
2022-11-29T00:56:08.821Z,2.60
2022-11-29T00:58:36.825Z,2.60
2022-11-29T01:01:04.904Z,2.80
2022-11-29T01:03:32.438Z,2.22
2022-11-29T01:06:07.885Z,2.58
2022-11-29T01:08:35.399Z,2.42
2022-11-29T01:11:11.427Z,1.75
2022-11-29T01:13:39.282Z,1.70
2022-11-29T01:16:07.510Z,2.53
2022-11-29T01:18:36.157Z,2.50
2022-11-29T01:21:07.631Z,2.70
2022-11-29T01:23:36.237Z,2.25
2022-11-29T01:26:13.201Z,2.35
2022-11-29T01:28:41.244Z,2.33
2022-11-29T01:31:14.540Z,2.00
2022-11-29T01:33:42.243Z,2.00
2022-11-29T01:36:12.279Z,2.05
2022-11-29T01:38:40.430Z,1.80
2022-11-29T01:41:13.009Z,2.45
2022-11-29T01:44:01.335Z,2.30
2022-11-29T01:46:31.541Z,2.15
2022-11-29T01:49:08.253Z,2.17
2022-11-29T01:51:37.419Z,2.30
2022-11-29T01:54:05.990Z,1.98
2022-11-29T01:56:34.932Z,2.05
2022-11-29T01:59:11.993Z,2.50
2022-11-29T02:01:39.373Z,2.22
2022-11-29T02:04:06.823Z,2.40
2022-11-29T02:06:36.192Z,1.98
2022-11-29T02:09:04.656Z,2.30
2022-11-29T02:11:40.698Z,2.55
2022-11-29T02:14:25.888Z,2.80
2022-11-29T02:17:38.158Z,2.28
2022-11-29T02:20:48.456Z,2.25
2022-11-29T02:23:52.904Z,1.63
2022-11-29T02:26:41.231Z,2.42
2022-11-29T02:29:23.545Z,2.08
2022-11-29T02:31:53.554Z,2.30
2022-11-29T02:34:47.678Z,2.35
2022-11-29T02:37:17.612Z,2.15
2022-11-29T02:40:03.456Z,2.70
2022-11-29T02:42:56.574Z,2.60
2022-11-29T02:45:51.594Z,2.47
2022-11-29T02:48:44.546Z,2.28
2022-11-29T02:51:19.195Z,2.38
2022-11-29T02:54:05.091Z,2.03
2022-11-29T02:56:43.216Z,2.50
2022-11-29T02:59:20.955Z,2.40
2022-11-29T03:02:21.683Z,2.03
2022-11-29T03:07:49.272Z,1.98
2022-11-29T03:10:43.605Z,1.92
2022-11-29T03:13:33.300Z,2.13
2022-11-29T03:16:06.485Z,2.03
2022-11-29T03:18:40.251Z,2.20
2022-11-29T03:21:27.373Z,2.42
2022-11-29T03:23:59.139Z,2.17
2022-11-29T03:26:55.636Z,2.10
2022-11-29T03:29:32.854Z,2.35
2022-11-29T03:32:07.499Z,2.40
2022-11-29T03:34:57.498Z,2.15
2022-11-29T03:38:03.998Z,2.08
2022-11-29T03:41:09.410Z,2.50
2022-11-29T03:44:07.273Z,2.08
2022-11-29T03:46:47.737Z,2.13
2022-11-29T03:49:41.072Z,1.83
2022-11-29T03:52:42.543Z,2.20
2022-11-29T03:55:25.879Z,1.77
2022-11-29T03:58:14.791Z,2.28
2022-11-29T04:00:48.115Z,1.98
2022-11-29T04:03:26.784Z,1.95
2022-11-29T04:06:44.164Z,1.98
2022-11-29T04:09:37.261Z,2.00
2022-11-29T04:12:32.440Z,2.05
2022-11-29T04:15:18.386Z,2.00
2022-11-29T04:18:19.342Z,2.10
2022-11-29T04:20:48.349Z,2.28
2022-11-29T04:23:52.474Z,2.10
2022-11-29T04:26:40.467Z,1.85
2022-11-29T04:29:13.683Z,2.10
2022-11-29T04:32:18.044Z,2.33
2022-11-29T04:35:14.343Z,2.10
2022-11-29T04:38:06.300Z,1.85
2022-11-29T04:41:15.461Z,2.15
2022-11-29T04:43:54.438Z,1.13
2022-11-29T04:46:54.340Z,1.77
2022-11-29T04:49:39.602Z,2.27
2022-11-29T04:52:28.124Z,1.83
2022-11-29T04:55:22.844Z,2.08
2022-11-29T04:58:07.553Z,2.05
2022-11-29T05:00:50.090Z,2.17
2022-11-29T05:03:32.297Z,1.83
2022-11-29T05:06:32.646Z,2.20
2022-11-29T05:08:59.752Z,1.67
2022-11-29T05:12:08.417Z,2.00
2022-11-29T05:15:17.556Z,2.08
2022-11-29T05:18:02.818Z,1.95
2022-11-29T05:20:52.474Z,1.10
2022-11-29T05:23:44.072Z,2.05
2022-11-29T05:26:23.067Z,2.10
2022-11-29T05:28:53.208Z,2.00
2022-11-29T05:31:47.535Z,2.20
2022-11-29T05:34:20.702Z,1.83
2022-11-29T05:37:26.032Z,2.38
2022-11-29T05:40:17.653Z,2.13
2022-11-29T05:43:06.689Z,2.22
2022-11-29T05:45:56.021Z,1.88
2022-11-29T05:48:45.458Z,2.20
2022-11-29T05:51:15.545Z,1.75
2022-11-29T05:53:51.618Z,2.38
2022-11-29T05:56:40.218Z,2.00
2022-11-29T05:59:15.499Z,1.95
2022-11-29T06:02:19.167Z,1.90
2022-11-29T06:05:15.386Z,1.70
2022-11-29T06:08:01.509Z,2.05
2022-11-29T06:10:36.129Z,2.08
2022-11-29T06:13:32.251Z,2.20
2022-11-29T06:16:18.089Z,2.10
2022-11-29T06:19:22.462Z,2.22
2022-11-29T06:22:10.708Z,2.35
2022-11-29T06:24:52.579Z,2.28
2022-11-29T06:27:48.816Z,2.35
2022-11-29T06:30:21.018Z,2.33
2022-11-29T06:33:14.294Z,2.40
2022-11-29T06:35:46.091Z,2.60
2022-11-29T06:38:23.895Z,2.08
2022-11-29T06:40:53.237Z,2.40
2022-11-29T06:43:23.681Z,2.60
2022-11-29T06:46:13.211Z,2.05
2022-11-29T06:48:51.806Z,2.30
2022-11-29T06:51:25.388Z,2.05
2022-11-29T06:54:11.797Z,2.40
2022-11-29T06:56:45.108Z,2.47
2022-11-29T06:59:49.466Z,2.20
2022-11-29T07:02:37.953Z,2.17
2022-11-29T07:05:11.247Z,2.25
2022-11-29T07:07:39.167Z,2.35
2022-11-29T07:10:11.982Z,2.33
2022-11-29T07:12:42.231Z,2.42
2022-11-29T07:15:20.524Z,2.13
2022-11-29T07:17:56.349Z,2.33
2022-11-29T07:20:50.505Z,2.30
2022-11-29T07:23:35.022Z,2.30
2022-11-29T07:26:21.980Z,2.28
2022-11-29T07:29:07.867Z,2.42
2022-11-29T07:31:52.568Z,2.20
2022-11-29T07:34:45.379Z,2.50
2022-11-29T07:37:37.556Z,2.50
2022-11-29T07:40:25.522Z,2.30
2022-11-29T07:42:59.720Z,2.15
2022-11-29T07:45:32.099Z,2.28
2022-11-29T07:47:59.986Z,2.20
2022-11-29T07:50:28.777Z,2.00
2022-11-29T07:52:56.922Z,1.65
2022-11-29T07:55:26.738Z,1.77
2022-11-29T07:57:54.058Z,1.83
2022-11-29T08:00:21.475Z,2.08
2022-11-29T08:02:50.199Z,2.22
2022-11-29T08:05:18.427Z,1.80
2022-11-29T08:07:46.684Z,2.22
2022-11-29T08:10:16.463Z,1.80
2022-11-29T08:12:45.675Z,1.13
2022-11-29T08:15:13.062Z,2.05
2022-11-29T08:17:40.637Z,1.75
2022-11-29T08:20:09.843Z,2.30
2022-11-29T08:22:37.012Z,2.10
2022-11-29T08:25:04.856Z,1.98
2022-11-29T08:27:32.251Z,1.52
2022-11-29T08:29:59.836Z,1.88
2022-11-29T08:32:28.197Z,1.80
2022-11-29T08:34:55.486Z,2.13
2022-11-29T08:37:22.685Z,1.48
2022-11-29T08:39:49.942Z,1.90
2022-11-29T08:42:17.258Z,1.70
2022-11-29T08:44:44.773Z,2.42
2022-11-29T08:47:32.283Z,8.23
2022-11-29T08:50:02.269Z,6.90
2022-11-29T08:52:53.030Z,4.35
2022-11-29T08:57:49.195Z,11.48
2022-11-29T09:00:17.866Z,12.90
2022-11-29T09:02:45.305Z,14.32
2022-11-29T09:05:12.645Z,5.20
2022-11-29T09:07:39.992Z,4.93
2022-11-29T09:10:08.713Z,5.50
2022-11-29T09:12:37.319Z,4.70
2022-11-29T09:15:06.725Z,4.45
2022-11-29T09:17:34.002Z,3.65
2022-11-29T09:20:01.285Z,3.30
2022-11-29T09:22:28.525Z,2.70
2022-11-29T09:24:55.714Z,3.08
2022-11-29T09:27:22.819Z,3.30
2022-11-29T09:29:50.038Z,3.80
2022-11-29T09:32:17.262Z,4.70
2022-11-29T09:34:44.612Z,4.50
2022-11-29T09:37:11.996Z,3.17
2022-11-29T09:39:40.430Z,3.72
2022-11-29T09:42:27.799Z,3.50
2022-11-29T09:45:08.801Z,3.38
2022-11-29T09:47:56.714Z,3.00
2022-11-29T09:50:36.818Z,2.60
2022-11-29T09:53:09.371Z,3.30
2022-11-29T09:55:39.764Z,3.70
2022-11-29T09:58:13.842Z,3.80
2022-11-29T10:00:50.858Z,2.78
2022-11-29T10:03:42.128Z,2.72
2022-11-29T10:06:21.367Z,2.47
2022-11-29T10:09:11.184Z,2.25
2022-11-29T10:11:38.503Z,2.50
2022-11-29T10:14:15.948Z,2.13
2022-11-29T10:17:04.299Z,2.65
2022-11-29T10:19:40.167Z,2.70
2022-11-29T10:22:49.527Z,2.70
2022-11-29T10:25:25.102Z,2.70
2022-11-29T10:27:53.835Z,2.25
2022-11-29T10:30:21.461Z,2.42
2022-11-29T10:32:56.380Z,2.30
2022-11-29T10:35:24.012Z,2.58
2022-11-29T10:38:29.170Z,2.83
2022-11-29T10:40:50.345Z,2.47
2022-11-29T10:43:17.504Z,2.45
2022-11-29T10:45:53.689Z,2.35
2022-11-29T10:48:33.592Z,2.17
2022-11-29T10:51:01.800Z,2.40
2022-11-29T10:53:36.215Z,2.28
2022-11-29T10:56:09.946Z,2.75
2022-11-29T10:58:57.326Z,2.40
2022-11-29T11:01:26.720Z,2.55
2022-11-29T11:03:56.207Z,1.38
2022-11-29T11:06:25.241Z,10.45
2022-11-29T11:08:58.038Z,11.57
2022-11-29T11:11:34.364Z,7.88
2022-11-29T11:14:26.659Z,2.33
2022-11-29T11:16:54.294Z,2.35
2022-11-29T11:19:32.257Z,2.78
2022-11-29T11:22:02.763Z,2.25
2022-11-29T11:24:33.235Z,3.00
2022-11-29T11:27:01.248Z,1.70
2022-11-29T11:29:44.468Z,2.70
2022-11-29T11:32:20.055Z,2.65
2022-11-29T11:35:02.549Z,3.00
2022-11-29T11:37:35.842Z,2.85
2022-11-29T11:40:29.381Z,3.08
2022-11-29T11:43:02.689Z,2.45
2022-11-29T11:45:36.874Z,2.65
2022-11-29T11:48:16.055Z,2.60
2022-11-29T11:50:50.159Z,2.55
2022-11-29T11:53:37.764Z,2.67
2022-11-29T11:56:09.416Z,4.57
2022-11-29T11:58:57.037Z,23.00
2022-11-29T12:01:38.741Z,10.23
2022-11-29T12:04:32.008Z,2.72
2022-11-29T12:07:01.352Z,4.90
2022-11-29T12:09:49.311Z,3.17
2022-11-29T12:12:23.390Z,2.78
2022-11-29T12:15:04.320Z,3.30
2022-11-29T12:17:52.688Z,2.60
2022-11-29T12:20:28.497Z,2.50
2022-11-29T12:23:13.641Z,2.78
2022-11-29T12:25:44.837Z,3.05
2022-11-29T12:28:19.856Z,2.80
2022-11-29T12:31:11.622Z,3.05
2022-11-29T12:34:09.536Z,2.65
2022-11-29T12:37:00.237Z,2.60
2022-11-29T12:42:40.405Z,2.63
2022-11-29T12:45:44.445Z,3.45
2022-11-29T12:48:41.884Z,2.55
2022-11-29T12:51:23.345Z,2.58
2022-11-29T12:54:22.008Z,2.10
2022-11-29T12:57:18.277Z,2.50
2022-11-29T12:59:57.687Z,2.50
2022-11-29T13:02:50.308Z,2.30
2022-11-29T13:05:30.125Z,2.92
2022-11-29T13:08:08.730Z,3.03
2022-11-29T13:11:06.377Z,2.70
2022-11-29T13:13:41.349Z,2.88
2022-11-29T13:16:13.589Z,3.33
2022-11-29T13:18:47.195Z,2.80
2022-11-29T13:21:20.488Z,2.60
2022-11-29T13:24:12.205Z,2.33
2022-11-29T13:26:40.975Z,3.20
2022-11-29T13:29:15.715Z,2.70
2022-11-29T13:31:44.311Z,2.30
2022-11-29T13:34:45.772Z,2.83
2022-11-29T13:37:27.285Z,2.25
2022-11-29T13:40:18.948Z,2.63
2022-11-29T13:43:21.395Z,1.75
2022-11-29T13:46:21.895Z,2.88
2022-11-29T13:48:53.755Z,1.73
2022-11-29T13:51:27.605Z,2.80
2022-11-29T13:54:00.715Z,3.10
2022-11-29T13:56:33.075Z,2.97
2022-11-29T13:59:05.976Z,2.78
2022-11-29T14:01:44.607Z,2.78
2022-11-29T14:04:29.302Z,2.78
2022-11-29T14:07:15.652Z,2.42
2022-11-29T14:09:48.861Z,2.60
2022-11-29T14:12:40.395Z,2.28
2022-11-29T14:15:43.095Z,2.90
2022-11-29T14:18:49.554Z,2.53
2022-11-29T14:21:16.857Z,2.38
2022-11-29T14:23:44.615Z,2.35
2022-11-29T14:26:11.778Z,2.40
2022-11-29T14:28:40.394Z,2.60
2022-11-29T14:31:08.924Z,2.63
2022-11-29T14:33:58.746Z,2.63
2022-11-29T14:36:54.256Z,2.10
2022-11-29T14:39:28.282Z,1.67
2022-11-29T14:42:17.166Z,2.00
2022-11-29T14:44:51.328Z,2.70
2022-11-29T14:47:38.370Z,1.90
2022-11-29T14:50:09.646Z,1.67
2022-11-29T14:52:40.123Z,2.60
2022-11-29T14:55:29.806Z,2.00
2022-11-29T14:58:06.452Z,2.60
2022-11-29T15:00:33.507Z,1.33
2022-11-29T15:03:33.520Z,1.42
2022-11-29T15:06:24.386Z,2.42
2022-11-29T15:09:02.181Z,2.10
2022-11-29T15:11:50.535Z,2.30
2022-11-29T15:14:58.985Z,0.85
2022-11-29T15:17:36.644Z,2.30
2022-11-29T15:20:09.368Z,2.28
2022-11-29T15:22:48.152Z,2.35
2022-11-29T15:25:19.884Z,1.95
2022-11-29T15:28:06.414Z,2.13
2022-11-29T15:30:38.570Z,1.33
2022-11-29T15:33:23.659Z,2.30
2022-11-29T15:36:23.575Z,2.45
2022-11-29T15:38:53.347Z,2.23
2022-11-29T15:41:34.764Z,2.13
2022-11-29T15:44:07.676Z,2.00
2022-11-29T15:46:36.138Z,2.40
2022-11-29T15:49:16.757Z,2.30
2022-11-29T15:54:16.957Z,2.78
2022-11-29T15:57:01.222Z,5.93
2022-11-29T15:59:37.585Z,15.38
2022-11-29T16:02:33.451Z,20.60
2022-11-29T16:05:20.427Z,7.90
2022-11-29T16:07:50.175Z,4.63
2022-11-29T16:10:33.487Z,5.47
2022-11-29T16:13:07.926Z,8.38
2022-11-29T16:15:37.626Z,5.28
2022-11-29T16:18:25.759Z,3.97
2022-11-29T16:21:00.477Z,7.38
2022-11-29T16:23:38.274Z,5.25
2022-11-29T16:26:05.424Z,3.75
2022-11-29T16:28:37.215Z,3.72
2022-11-29T16:31:05.179Z,3.10
2022-11-29T16:33:32.931Z,3.20
2022-11-29T16:36:13.595Z,3.40
2022-11-29T16:41:35.006Z,2.88
2022-11-29T16:44:03.889Z,2.47
2022-11-29T16:46:40.365Z,2.53
2022-11-29T16:49:36.587Z,3.00
2022-11-29T16:52:27.325Z,3.13
2022-11-29T16:57:22.055Z,24.08
2022-11-29T16:59:49.635Z,17.33
2022-11-29T17:02:17.335Z,8.90
2022-11-29T17:04:45.477Z,12.93
2022-11-29T17:07:28.897Z,5.90
2022-11-29T17:09:57.213Z,6.95
2022-11-29T17:12:24.424Z,3.42
2022-11-29T17:14:51.664Z,3.65
2022-11-29T17:17:20.027Z,3.63
2022-11-29T17:19:47.214Z,5.20
2022-11-29T17:22:14.454Z,4.18
2022-11-29T17:24:46.389Z,5.15
2022-11-29T17:27:15.539Z,6.20
2022-11-29T17:29:42.780Z,3.70
2022-11-29T17:32:09.974Z,3.78
2022-11-29T17:34:37.167Z,3.22
2022-11-29T17:37:04.366Z,2.60
2022-11-29T17:39:32.335Z,2.60
2022-11-29T17:41:59.600Z,2.88
2022-11-29T17:44:26.663Z,3.00
2022-11-29T17:46:53.875Z,2.83
2022-11-29T17:49:21.028Z,3.08
2022-11-29T17:51:52.987Z,3.50
2022-11-29T17:54:21.636Z,3.05
2022-11-29T17:56:49.515Z,2.90
2022-11-29T17:59:16.744Z,3.05
2022-11-29T18:01:43.993Z,2.97
2022-11-29T18:04:11.543Z,13.70
2022-11-29T18:06:40.929Z,16.92
2022-11-29T18:09:10.187Z,10.93
2022-11-29T18:11:46.982Z,7.97
2022-11-29T18:14:18.078Z,6.50
2022-11-29T18:16:45.848Z,6.03
2022-11-29T18:19:16.048Z,4.30
2022-11-29T18:21:43.959Z,3.47
2022-11-29T18:24:15.393Z,3.58
2022-11-29T18:26:43.499Z,4.13
2022-11-29T18:29:11.236Z,7.45
2022-11-29T18:31:41.866Z,3.30
2022-11-29T18:36:46.932Z,3.40
2022-11-29T18:39:16.907Z,4.22
2022-11-29T18:41:48.684Z,3.90
2022-11-29T18:44:18.655Z,2.83
2022-11-29T18:46:46.834Z,3.30
2022-11-29T18:49:17.389Z,3.20
2022-11-29T18:54:14.758Z,3.10
2022-11-29T18:56:42.740Z,3.15
2022-11-29T18:59:13.777Z,1.95
2022-11-29T19:01:43.032Z,3.47
2022-11-29T19:04:16.019Z,3.60
2022-11-29T19:06:43.894Z,4.60
2022-11-29T19:09:22.674Z,3.72
2022-11-29T19:11:50.584Z,3.20
2022-11-29T19:14:18.874Z,5.63
2022-11-29T19:16:47.716Z,4.82
2022-11-29T19:19:15.434Z,4.07
2022-11-29T19:21:42.925Z,4.60
2022-11-29T19:24:15.960Z,8.07
2022-11-29T19:26:45.743Z,4.80
2022-11-29T19:29:16.562Z,3.80
2022-11-29T19:31:43.939Z,4.18
2022-11-29T19:34:11.603Z,3.90
2022-11-29T19:36:43.966Z,3.50
2022-11-29T19:39:14.239Z,3.63
2022-11-29T19:41:43.937Z,2.70
2022-11-29T19:44:11.234Z,4.77
2022-11-29T19:46:41.989Z,3.63
2022-11-29T19:49:09.637Z,3.00
2022-11-29T19:51:37.128Z,3.03
2022-11-29T19:54:07.259Z,1.85
2022-11-29T19:56:34.656Z,2.85
2022-11-29T19:59:01.958Z,3.03
2022-11-29T20:01:39.244Z,3.05
2022-11-29T20:04:07.723Z,3.20
2022-11-29T20:06:34.973Z,3.25
2022-11-29T20:09:02.865Z,3.30
2022-11-29T20:11:30.106Z,3.38
2022-11-29T20:14:02.105Z,3.13
2022-11-29T20:16:30.582Z,3.45
2022-11-29T20:18:58.817Z,3.13
2022-11-29T20:21:28.514Z,3.15
2022-11-29T20:24:06.494Z,2.73
2022-11-29T20:26:35.628Z,3.28
2022-11-29T20:29:04.950Z,3.05
2022-11-29T20:31:34.009Z,2.97
2022-11-29T20:34:01.516Z,2.92
2022-11-29T20:36:37.435Z,3.03
2022-11-29T20:39:53.136Z,3.08
2022-11-29T20:42:36.837Z,2.83
2022-11-29T20:45:09.213Z,2.95
2022-11-29T20:47:54.334Z,3.00
2022-11-29T20:50:23.949Z,2.50
2022-11-29T20:53:14.805Z,3.17
2022-11-29T20:58:16.313Z,3.22
2022-11-29T21:00:43.614Z,3.65
2022-11-29T21:03:17.230Z,3.10
2022-11-29T21:05:45.355Z,2.90
2022-11-29T21:08:13.434Z,3.03
2022-11-29T21:10:40.912Z,3.67
2022-11-29T21:13:10.359Z,2.80
2022-11-29T21:15:38.136Z,3.20
2022-11-29T21:18:05.734Z,2.72
2022-11-29T21:20:33.099Z,2.90
2022-11-29T21:23:22.834Z,2.97
2022-11-29T21:25:54.996Z,3.03
2022-11-29T21:28:29.214Z,3.08
2022-11-29T21:30:56.816Z,3.08
2022-11-29T21:33:24.300Z,3.20
2022-11-29T21:35:54.774Z,3.00
2022-11-29T21:38:24.565Z,3.20
2022-11-29T21:40:51.654Z,3.17
2022-11-29T21:43:18.769Z,3.22
2022-11-29T21:45:47.937Z,2.90
2022-11-29T21:48:34.144Z,3.47
2022-11-29T21:51:03.047Z,3.33
2022-11-29T21:53:30.194Z,3.20
2022-11-29T21:55:59.024Z,3.15
2022-11-29T21:58:28.345Z,3.20
2022-11-29T22:00:55.556Z,2.90
2022-11-29T22:03:22.714Z,2.95
2022-11-29T22:05:49.892Z,2.47
2022-11-29T22:08:18.057Z,3.03
2022-11-29T22:10:45.144Z,3.15
2022-11-29T22:13:12.345Z,3.13
2022-11-29T22:15:39.599Z,2.70
2022-11-29T22:18:06.825Z,2.70
2022-11-29T22:20:34.015Z,3.10
2022-11-29T22:23:01.167Z,3.10
2022-11-29T22:25:28.375Z,2.95
2022-11-29T22:27:55.485Z,3.00
2022-11-29T22:30:22.637Z,3.13
2022-11-29T22:32:49.778Z,3.00
2022-11-29T22:35:16.939Z,2.85
2022-11-29T22:37:44.214Z,2.80
2022-11-29T22:40:11.925Z,3.53
2022-11-29T22:42:39.207Z,2.95
2022-11-29T22:45:06.845Z,3.25
2022-11-29T22:47:34.006Z,2.65
2022-11-29T22:50:01.115Z,3.20
2022-11-29T22:52:28.295Z,3.30
2022-11-29T22:54:58.672Z,3.17
2022-11-29T22:57:28.447Z,2.72
2022-11-29T22:59:55.657Z,3.30
2022-11-29T23:02:22.829Z,3.47
2022-11-29T23:04:49.904Z,3.65
2022-11-29T23:07:17.067Z,3.28
2022-11-29T23:09:44.228Z,3.65
2022-11-29T23:12:11.377Z,3.85
2022-11-29T23:14:38.537Z,2.67
2022-11-29T23:17:05.728Z,3.60
2022-11-29T23:19:32.809Z,3.50
2022-11-29T23:22:00.039Z,3.90
2022-11-29T23:24:27.195Z,3.55
2022-11-29T23:26:54.318Z,3.28
2022-11-29T23:29:21.444Z,3.47
2022-11-29T23:31:49.328Z,3.50
2022-11-29T23:34:16.574Z,3.45
2022-11-29T23:36:46.997Z,3.90
2022-11-29T23:39:16.865Z,3.55
2022-11-29T23:41:44.080Z,4.07
2022-11-29T23:44:11.279Z,3.30
2022-11-29T23:46:38.428Z,3.90
2022-11-29T23:49:05.550Z,3.78
2022-11-29T23:51:32.800Z,3.30
2022-11-29T23:53:59.968Z,3.28
2022-11-29T23:56:27.197Z,4.03
2022-11-29T23:58:54.416Z,3.72
